createdAt,value
2017-06-17T00:01:24.677Z,9.43
2017-06-17T00:03:53.943Z,10.67
2017-06-17T00:06:22.790Z,10.90
2017-06-17T00:08:51.350Z,11.10
2017-06-17T00:11:20.022Z,11.53
2017-06-17T00:13:48.510Z,5.70
2017-06-17T00:16:17.229Z,12.93
2017-06-17T00:18:46.512Z,9.63
2017-06-17T00:21:15.018Z,16.80
2017-06-17T00:23:45.072Z,7.07
2017-06-17T00:26:13.595Z,9.93
2017-06-17T00:28:42.257Z,6.57
2017-06-17T00:31:10.967Z,10.70
2017-06-17T00:33:39.472Z,15.50
2017-06-17T00:36:08.774Z,13.07
2017-06-17T00:38:38.263Z,14.73
2017-06-17T00:41:07.725Z,12.30
2017-06-17T00:43:36.211Z,15.00
2017-06-17T00:46:05.343Z,10.37
2017-06-17T00:48:33.823Z,10.93
2017-06-17T00:51:02.461Z,7.33
2017-06-17T00:53:30.973Z,6.67
2017-06-17T00:55:59.498Z,8.27
2017-06-17T00:58:28.779Z,8.87
2017-06-17T01:00:57.693Z,8.37
2017-06-17T01:03:30.221Z,5.10
2017-06-17T01:05:58.744Z,10.30
2017-06-17T01:08:28.653Z,10.07
2017-06-17T01:10:57.900Z,7.77
2017-06-17T01:13:26.454Z,7.03
2017-06-17T01:15:55.760Z,10.30
2017-06-17T01:18:25.056Z,6.13
2017-06-17T01:20:54.521Z,12.13
2017-06-17T01:23:22.990Z,9.00
2017-06-17T01:25:51.489Z,11.83
2017-06-17T01:28:19.966Z,12.03
2017-06-17T01:30:48.473Z,12.40
2017-06-17T01:33:17.437Z,12.03
2017-06-17T01:35:45.999Z,11.37
2017-06-17T01:38:14.502Z,14.20
2017-06-17T01:40:43.514Z,9.70
2017-06-17T01:43:12.197Z,12.43
2017-06-17T01:45:40.820Z,5.70
2017-06-17T01:48:10.287Z,15.90
2017-06-17T01:50:38.993Z,6.90
2017-06-17T01:53:07.547Z,9.90
2017-06-17T01:55:36.158Z,6.80
2017-06-17T01:58:06.306Z,10.87
2017-06-17T02:00:35.537Z,9.27
2017-06-17T02:03:04.080Z,8.57
2017-06-17T02:05:33.597Z,9.03
2017-06-17T02:08:02.898Z,12.93
2017-06-17T02:10:32.180Z,6.47
2017-06-17T02:13:00.817Z,14.33
2017-06-17T02:15:29.761Z,7.57
2017-06-17T02:17:58.464Z,12.83
2017-06-17T02:20:29.026Z,13.97
2017-06-17T02:22:57.636Z,10.77
2017-06-17T02:25:26.111Z,9.30
2017-06-17T02:27:54.629Z,9.80
2017-06-17T02:30:23.334Z,10.07
2017-06-17T02:32:52.568Z,5.03
2017-06-17T02:35:21.119Z,15.00
2017-06-17T02:37:50.994Z,12.90
2017-06-17T02:40:19.662Z,6.80
2017-06-17T02:42:48.228Z,10.50
2017-06-17T02:45:16.926Z,12.43
2017-06-17T02:47:45.382Z,6.33
2017-06-17T02:50:13.878Z,12.50
2017-06-17T02:52:42.489Z,10.10
2017-06-17T02:55:11.443Z,8.43
2017-06-17T02:57:40.121Z,7.63
2017-06-17T03:00:09.373Z,11.37
2017-06-17T03:02:37.897Z,13.63
2017-06-17T03:05:07.208Z,12.50
2017-06-17T03:07:36.409Z,6.73
2017-06-17T03:10:05.530Z,9.73
2017-06-17T03:12:34.030Z,11.40
2017-06-17T03:15:02.544Z,8.53
2017-06-17T03:17:31.206Z,11.77
2017-06-17T03:19:59.698Z,9.97
2017-06-17T03:22:28.199Z,8.33
2017-06-17T03:24:56.683Z,10.03
2017-06-17T03:27:25.393Z,7.53
2017-06-17T03:29:54.692Z,8.53
2017-06-17T03:32:24.564Z,10.50
2017-06-17T03:34:53.091Z,11.70
2017-06-17T03:37:22.348Z,11.53
2017-06-17T03:39:50.874Z,7.57
2017-06-17T03:42:20.152Z,8.47
2017-06-17T03:44:48.868Z,10.30
2017-06-17T03:47:18.135Z,10.97
2017-06-17T03:49:46.614Z,14.33
2017-06-17T03:52:15.715Z,12.17
2017-06-17T03:54:44.433Z,10.50
2017-06-17T03:57:13.695Z,11.20
2017-06-17T03:59:42.402Z,12.40
2017-06-17T04:02:10.905Z,11.73
2017-06-17T04:04:39.774Z,8.10
2017-06-17T04:07:08.254Z,7.30
2017-06-17T04:09:36.759Z,8.50
2017-06-17T04:12:06.651Z,10.20
2017-06-17T04:14:35.160Z,6.70
2017-06-17T04:17:03.773Z,13.27
2017-06-17T04:19:32.296Z,10.27
2017-06-17T04:22:00.847Z,10.70
2017-06-17T04:24:29.358Z,11.20
2017-06-17T04:26:58.322Z,14.30
2017-06-17T04:29:26.794Z,10.63
2017-06-17T04:31:56.150Z,12.50
2017-06-17T04:34:24.643Z,9.13
2017-06-17T04:36:53.129Z,8.23
2017-06-17T04:39:22.439Z,8.97
2017-06-17T04:41:51.741Z,12.37
2017-06-17T04:44:21.554Z,6.03
2017-06-17T04:46:50.119Z,7.67
2017-06-17T04:49:19.031Z,11.77
2017-06-17T04:51:48.278Z,6.10
2017-06-17T04:54:16.790Z,7.27
2017-06-17T04:56:45.477Z,10.33
2017-06-17T04:59:13.983Z,8.30
2017-06-17T05:01:43.226Z,7.80
2017-06-17T05:04:12.949Z,8.30
2017-06-17T05:06:41.445Z,7.80
2017-06-17T05:09:09.961Z,5.50
2017-06-17T05:11:39.831Z,6.57
2017-06-17T05:14:08.565Z,6.47
2017-06-17T05:16:37.818Z,8.30
2017-06-17T05:19:06.525Z,3.83
2017-06-17T05:21:35.183Z,7.77
2017-06-17T05:24:03.731Z,9.20
2017-06-17T05:26:32.465Z,6.27
2017-06-17T05:29:01.155Z,4.13
2017-06-17T05:31:31.053Z,6.50
2017-06-17T05:33:59.573Z,3.70
2017-06-17T05:36:28.094Z,5.57
2017-06-17T05:38:56.665Z,9.57
2017-06-17T05:41:25.902Z,5.13
2017-06-17T05:43:54.449Z,4.70
2017-06-17T05:46:24.323Z,6.67
2017-06-17T05:48:53.054Z,6.87
2017-06-17T05:51:22.547Z,9.47
2017-06-17T05:53:51.028Z,7.83
2017-06-17T05:56:21.654Z,5.63
2017-06-17T05:58:50.154Z,11.00
2017-06-17T06:01:18.693Z,9.83
2017-06-17T06:03:48.165Z,6.60
2017-06-17T06:06:16.938Z,7.80
2017-06-17T06:08:46.177Z,6.90
2017-06-17T06:11:14.658Z,8.90
2017-06-17T06:13:43.823Z,5.87
2017-06-17T06:16:13.122Z,6.87
2017-06-17T06:18:42.473Z,8.40
2017-06-17T06:21:11.315Z,5.70
2017-06-17T06:23:40.666Z,10.90
2017-06-17T06:26:09.204Z,8.50
2017-06-17T06:28:37.935Z,6.37
2017-06-17T06:31:06.605Z,6.10
2017-06-17T06:33:35.286Z,8.90
2017-06-17T06:36:03.820Z,4.97
2017-06-17T06:38:32.926Z,6.50
2017-06-17T06:41:09.182Z,4.60
2017-06-17T06:43:37.709Z,3.90
2017-06-17T06:46:06.379Z,7.30
2017-06-17T06:48:35.093Z,3.93
2017-06-17T06:51:04.178Z,3.73
2017-06-17T06:53:32.774Z,8.00
2017-06-17T06:56:01.332Z,4.60
2017-06-17T06:58:30.629Z,9.20
2017-06-17T07:00:59.898Z,4.30
2017-06-17T07:03:28.377Z,4.17
2017-06-17T07:05:57.086Z,7.43
2017-06-17T07:08:26.450Z,4.63
2017-06-17T07:10:55.070Z,3.80
2017-06-17T07:13:24.786Z,7.20
2017-06-17T07:15:54.238Z,5.70
2017-06-17T07:18:24.123Z,4.70
2017-06-17T07:20:53.420Z,7.20
2017-06-17T07:23:22.724Z,3.90
2017-06-17T07:25:52.127Z,7.90
2017-06-17T07:28:21.098Z,6.10
2017-06-17T07:30:49.821Z,5.73
2017-06-17T07:33:18.329Z,8.10
2017-06-17T07:35:47.034Z,4.70
2017-06-17T07:38:15.664Z,6.73
2017-06-17T07:40:45.528Z,4.60
2017-06-17T07:43:14.177Z,4.07
2017-06-17T07:45:43.139Z,3.43
2017-06-17T07:48:11.795Z,4.90
2017-06-17T07:50:40.318Z,3.17
2017-06-17T07:53:09.634Z,5.53
2017-06-17T07:55:38.916Z,4.17
2017-06-17T07:58:08.014Z,3.00
2017-06-17T08:00:37.536Z,5.27
2017-06-17T08:03:07.570Z,4.90
2017-06-17T08:05:36.122Z,5.23
2017-06-17T08:08:05.644Z,5.17
2017-06-17T08:10:35.110Z,4.30
2017-06-17T08:13:03.778Z,5.73
2017-06-17T08:15:32.778Z,1.80
2017-06-17T08:18:01.511Z,2.27
2017-06-17T08:20:30.065Z,4.00
2017-06-17T08:22:59.540Z,2.87
2017-06-17T08:25:28.797Z,3.43
2017-06-17T08:27:58.450Z,2.60
2017-06-17T08:30:26.971Z,4.77
2017-06-17T08:32:55.690Z,4.77
2017-06-17T08:35:25.552Z,6.10
2017-06-17T08:37:54.280Z,3.53
2017-06-17T08:40:23.598Z,2.47
2017-06-17T08:42:52.280Z,2.70
2017-06-17T08:45:21.741Z,3.17
2017-06-17T08:47:51.050Z,4.40
2017-06-17T08:50:20.246Z,3.03
2017-06-17T08:52:48.817Z,3.43
2017-06-17T08:55:17.556Z,3.07
2017-06-17T08:57:46.917Z,5.37
2017-06-17T09:00:15.752Z,6.53
2017-06-17T09:07:41.403Z,2.70
2017-06-17T09:10:10.960Z,3.23
2017-06-17T09:12:39.818Z,4.97
2017-06-17T09:15:09.715Z,4.10
2017-06-17T09:17:39.203Z,3.57
2017-06-17T09:20:08.123Z,3.60
2017-06-17T09:22:36.774Z,2.70
2017-06-17T09:25:05.653Z,3.70
2017-06-17T09:27:34.150Z,2.20
2017-06-17T09:30:02.861Z,2.37
2017-06-17T09:32:32.585Z,3.97
2017-06-17T09:35:02.079Z,3.27
2017-06-17T09:37:31.380Z,3.50
2017-06-17T09:40:00.645Z,3.13
2017-06-17T09:42:29.315Z,4.53
2017-06-17T09:44:57.830Z,4.30
2017-06-17T09:47:26.515Z,1.90
2017-06-17T09:49:55.003Z,3.07
2017-06-17T09:54:52.972Z,3.87
2017-06-17T09:57:21.577Z,3.00
2017-06-17T09:59:50.157Z,2.03
2017-06-17T10:02:19.681Z,3.57
2017-06-17T10:04:48.966Z,3.60
2017-06-17T10:12:15.406Z,1.30
2017-06-17T10:17:12.213Z,2.77
2017-06-17T10:19:41.511Z,2.67
2017-06-17T10:22:10.778Z,3.40
2017-06-17T10:24:39.358Z,3.50
2017-06-17T10:27:07.873Z,3.03
2017-06-17T10:29:36.390Z,4.87
2017-06-17T10:32:05.152Z,1.57
2017-06-17T10:34:35.029Z,2.90
2017-06-17T10:37:03.845Z,2.60
2017-06-17T10:39:33.138Z,3.03
2017-06-17T10:42:01.823Z,2.20
2017-06-17T10:44:30.780Z,2.10
2017-06-17T10:47:01.864Z,1.50
2017-06-17T10:54:27.875Z,4.23
2017-06-17T11:01:52.775Z,1.43
2017-06-17T11:04:22.020Z,1.97
2017-06-17T11:06:50.967Z,2.30
2017-06-17T13:20:52.906Z,2.67
2017-06-17T13:23:21.398Z,3.40
2017-06-17T13:25:50.109Z,4.03
2017-06-17T13:28:18.770Z,2.60
2017-06-17T13:30:47.497Z,3.40
2017-06-17T13:33:16.792Z,3.13
2017-06-17T13:35:46.045Z,3.17
2017-06-17T13:38:14.785Z,2.00
2017-06-17T13:40:44.292Z,1.77
2017-06-17T13:43:14.150Z,3.77
2017-06-17T13:45:42.881Z,2.07
2017-06-17T13:48:12.346Z,2.43
2017-06-17T13:50:41.090Z,1.37
2017-06-17T13:53:10.599Z,3.27
2017-06-17T13:55:40.031Z,2.03
2017-06-17T13:58:08.769Z,3.70
2017-06-17T14:00:38.690Z,1.77
2017-06-17T14:03:07.774Z,1.97
2017-06-17T14:05:36.327Z,2.80
2017-06-17T14:08:06.164Z,2.77
2017-06-17T14:10:34.719Z,6.30
2017-06-17T14:13:03.640Z,1.50
2017-06-17T14:15:32.449Z,3.10
2017-06-17T14:18:01.766Z,2.53
2017-06-17T14:20:31.688Z,2.53
2017-06-17T14:23:00.525Z,3.60
2017-06-17T14:25:29.547Z,2.10
2017-06-17T14:27:58.153Z,2.63
2017-06-17T14:30:27.681Z,2.30
2017-06-17T14:32:56.386Z,3.07
2017-06-17T14:35:25.196Z,2.03
2017-06-17T14:37:54.186Z,5.67
2017-06-17T14:40:22.929Z,2.60
2017-06-17T14:42:51.638Z,1.53
2017-06-17T14:45:20.396Z,3.40
2017-06-17T14:47:49.824Z,3.33
2017-06-17T14:50:18.835Z,2.63
2017-06-17T14:52:47.437Z,2.70
2017-06-17T14:55:16.063Z,2.27
2017-06-17T14:57:49.964Z,1.63
2017-06-17T15:00:23.639Z,1.70
2017-06-17T15:02:52.524Z,2.13
2017-06-17T15:05:21.417Z,1.50
2017-06-17T15:07:50.851Z,2.20
2017-06-17T15:10:20.372Z,2.57
2017-06-17T15:12:50.519Z,4.03
2017-06-17T15:15:19.596Z,3.20
2017-06-17T15:17:51.348Z,4.30
2017-06-17T15:20:21.737Z,3.20
2017-06-17T15:22:50.602Z,2.17
2017-06-17T15:25:19.562Z,4.23
2017-06-17T15:27:49.453Z,1.97
2017-06-17T15:30:18.149Z,2.17
2017-06-17T15:32:46.727Z,1.60
2017-06-17T15:35:15.582Z,2.53
2017-06-17T15:37:44.412Z,1.93
2017-06-17T15:40:13.693Z,3.07
2017-06-17T15:42:42.426Z,3.00
2017-06-17T15:45:11.054Z,1.70
2017-06-17T15:47:39.771Z,2.00
2017-06-17T15:50:08.648Z,2.00
2017-06-17T15:52:37.241Z,2.97
2017-06-17T15:55:07.041Z,2.40
2017-06-17T15:57:35.767Z,3.20
2017-06-17T16:00:05.127Z,2.70
2017-06-17T16:02:34.605Z,2.07
2017-06-17T16:05:03.223Z,2.70
2017-06-17T16:07:31.738Z,3.20
2017-06-17T16:10:01.177Z,4.83
2017-06-17T16:12:30.709Z,3.60
2017-06-17T16:14:59.445Z,2.10
2017-06-17T16:17:28.898Z,3.50
2017-06-17T16:19:57.425Z,2.57
2017-06-17T16:22:25.962Z,2.00
2017-06-17T16:24:54.485Z,3.90
2017-06-17T16:27:24.219Z,2.57
2017-06-17T16:29:52.798Z,3.10
2017-06-17T16:32:22.094Z,2.83
2017-06-17T16:34:51.578Z,3.77
2017-06-17T16:37:20.090Z,2.13
2017-06-17T16:39:48.653Z,2.70
2017-06-17T16:42:17.146Z,2.40
2017-06-17T16:44:46.678Z,3.70
2017-06-17T16:47:15.191Z,2.70
2017-06-17T16:49:43.706Z,2.83
2017-06-17T16:52:12.229Z,3.50
2017-06-17T16:54:41.201Z,2.77
2017-06-17T16:57:11.089Z,4.07
2017-06-17T16:59:39.665Z,8.13
2017-06-17T17:02:08.170Z,4.07
2017-06-17T17:04:36.742Z,5.03
2017-06-17T17:07:05.300Z,3.17
2017-06-17T17:09:34.551Z,4.13
2017-06-17T17:12:04.038Z,3.50
2017-06-17T17:14:32.730Z,3.27
2017-06-17T17:17:01.314Z,4.10
2017-06-17T17:19:29.783Z,5.30
2017-06-17T17:21:58.326Z,4.53
2017-06-17T17:24:27.426Z,3.00
2017-06-17T17:26:55.986Z,2.90
2017-06-17T17:29:24.621Z,5.93
2017-06-17T17:31:53.166Z,3.10
2017-06-17T17:34:22.298Z,4.17
2017-06-17T17:36:50.873Z,2.20
2017-06-17T17:39:19.409Z,3.43
2017-06-17T17:41:48.893Z,4.70
2017-06-17T17:44:18.014Z,3.67
2017-06-17T17:46:47.402Z,2.50
2017-06-17T17:49:15.977Z,2.30
2017-06-17T17:51:45.262Z,4.67
2017-06-17T17:54:14.355Z,2.50
2017-06-17T17:56:42.830Z,2.90
2017-06-17T17:59:11.466Z,4.40
2017-06-17T18:01:40.818Z,5.20
2017-06-17T18:04:10.078Z,2.20
2017-06-17T18:06:38.739Z,3.07
2017-06-17T18:09:07.261Z,3.90
2017-06-17T18:11:36.279Z,3.80
2017-06-17T18:14:05.022Z,5.23
2017-06-17T18:16:34.252Z,4.13
2017-06-17T18:19:03.070Z,3.73
2017-06-17T18:21:31.702Z,2.70
2017-06-17T18:24:00.851Z,2.93
2017-06-17T18:26:29.339Z,2.47
2017-06-17T18:28:58.069Z,2.40
2017-06-17T18:31:27.523Z,2.53
2017-06-17T18:33:56.021Z,3.07
2017-06-17T18:36:26.125Z,3.30
2017-06-17T18:38:54.816Z,5.00
2017-06-17T18:41:23.701Z,5.57
2017-06-17T18:43:52.294Z,4.10
2017-06-17T18:46:21.180Z,3.80
2017-06-17T18:48:50.384Z,3.47
2017-06-17T18:51:18.866Z,4.37
2017-06-17T18:53:47.397Z,3.47
2017-06-17T18:56:17.310Z,3.30
2017-06-17T18:58:46.782Z,2.80
2017-06-17T19:01:15.709Z,4.37
2017-06-17T19:03:45.227Z,3.77
2017-06-17T19:06:13.881Z,4.03
2017-06-17T19:08:42.568Z,3.80
2017-06-17T19:11:11.276Z,3.13
2017-06-17T19:13:40.565Z,5.80
2017-06-17T19:16:09.972Z,5.10
2017-06-17T19:18:39.180Z,3.73
2017-06-17T19:21:08.687Z,4.23
2017-06-17T19:23:38.194Z,3.50
2017-06-17T19:26:07.966Z,2.60
2017-06-17T19:28:37.648Z,3.53
2017-06-17T19:31:06.717Z,3.87
2017-06-17T19:33:35.999Z,5.63
2017-06-17T19:36:05.250Z,3.47
2017-06-17T19:38:34.053Z,2.97
2017-06-17T19:41:02.791Z,3.33
2017-06-17T19:43:31.354Z,2.93
2017-06-17T19:45:59.894Z,4.03
2017-06-17T19:48:28.461Z,5.50
2017-06-17T19:50:57.212Z,5.00
2017-06-17T19:53:25.816Z,4.50
2017-06-17T19:55:54.331Z,4.07
2017-06-17T19:58:23.293Z,4.37
2017-06-17T20:00:52.748Z,4.23
2017-06-17T20:03:21.465Z,6.43
2017-06-17T20:05:49.986Z,6.13
2017-06-17T20:08:18.551Z,4.70
2017-06-17T20:10:47.344Z,4.30
2017-06-17T20:13:16.629Z,4.17
2017-06-17T20:15:46.109Z,4.40
2017-06-17T20:18:15.244Z,5.37
2017-06-17T20:20:49.217Z,4.63
2017-06-17T20:23:19.054Z,3.93
2017-06-17T20:25:47.609Z,4.70
2017-06-17T20:28:16.550Z,6.00
2017-06-17T20:30:46.005Z,6.00
2017-06-17T20:33:14.530Z,6.77
2017-06-17T20:35:43.166Z,5.13
2017-06-17T20:38:12.197Z,9.00
2017-06-17T20:40:40.761Z,5.27
2017-06-17T20:43:09.500Z,6.23
2017-06-17T20:45:38.275Z,10.03
2017-06-17T20:48:06.928Z,7.67
2017-06-17T21:03:51.332Z,11.43
2017-06-17T21:06:19.918Z,13.50
2017-06-17T21:08:48.691Z,12.57
2017-06-17T21:11:18.819Z,10.13
2017-06-17T21:13:48.369Z,9.87
2017-06-17T21:16:16.946Z,10.30
2017-06-17T21:18:46.341Z,12.40
2017-06-17T21:21:15.192Z,11.83
2017-06-17T21:23:44.938Z,12.63
2017-06-17T21:26:13.464Z,13.33
2017-06-17T21:28:42.058Z,15.83
2017-06-17T21:31:10.675Z,13.30
2017-06-17T21:33:39.200Z,11.70
2017-06-17T21:36:07.888Z,13.40
2017-06-17T21:38:36.434Z,11.97
2017-06-17T21:41:05.110Z,13.30
2017-06-17T21:43:33.805Z,11.20
2017-06-17T21:46:02.355Z,12.83
2017-06-17T21:48:31.419Z,11.47
2017-06-17T21:50:59.924Z,11.40
2017-06-17T21:53:40.850Z,11.80
2017-06-17T21:56:09.393Z,11.40
2017-06-17T21:58:38.209Z,14.10
2017-06-17T22:01:06.745Z,12.03
2017-06-17T22:03:35.278Z,12.37
2017-06-17T22:06:08.450Z,11.27
2017-06-17T22:08:37.182Z,13.63
2017-06-17T22:11:05.843Z,10.17
2017-06-17T22:13:34.396Z,9.97
2017-06-17T22:16:02.914Z,10.70
2017-06-17T22:18:31.446Z,10.00
2017-06-17T22:20:59.972Z,10.00
2017-06-17T22:23:28.818Z,8.00
2017-06-17T22:25:57.553Z,9.67
2017-06-17T22:28:26.053Z,9.33
2017-06-17T22:50:02.495Z,9.23
2017-06-17T22:52:31.103Z,7.53
2017-06-17T22:54:59.649Z,7.37
2017-06-17T22:57:28.169Z,8.33
2017-06-17T22:59:56.954Z,8.13
2017-06-17T23:02:25.842Z,8.80
2017-06-17T23:04:54.314Z,8.30
2017-06-17T23:07:23.010Z,8.70
2017-06-17T23:09:51.509Z,7.90
2017-06-17T23:12:21.218Z,9.73
2017-06-17T23:14:50.502Z,8.47
2017-06-17T23:17:19.017Z,8.73
2017-06-17T23:19:48.367Z,12.10
2017-06-17T23:22:16.854Z,9.30
2017-06-17T23:24:45.433Z,9.00
2017-06-17T23:27:14.150Z,8.87
2017-06-17T23:29:42.643Z,11.17
2017-06-17T23:32:11.955Z,9.90
2017-06-17T23:34:41.209Z,9.10
2017-06-17T23:37:09.975Z,9.47
2017-06-17T23:39:38.482Z,10.20
2017-06-17T23:42:06.981Z,12.30
2017-06-17T23:44:35.543Z,10.60
2017-06-17T23:47:04.060Z,12.97
2017-06-17T23:49:32.768Z,10.40
2017-06-17T23:52:02.022Z,12.47
2017-06-17T23:54:30.493Z,12.73
2017-06-17T23:56:58.984Z,10.37
2017-06-17T23:59:27.922Z,11.60
